Time;durP1;ratioP1;P1;durP2;ratioP2;P2;SDS_P1;SDS_P2;PMS_P1;PMS_P2;Temp;Humidity;BMP_temperature;BMP_pressure;BME280_temperature;BME280_humidity;BME280_pressure;Samples;Min_cycle;Max_cycle;Signal;HPM_P1;HPM_P2
2021/11/08 00:00:16;;;;;;;;;;;21.00;62.00;;;;;;5051285;28;1198;-67
2021/11/08 00:02:44;;;;;;;;;;;21.00;62.10;;;;;;5034636;28;1256;-68
2021/11/08 00:05:09;;;;;;;;;;;21.00;62.10;;;;;;5034594;28;1351;-68
2021/11/08 00:07:36;;;;;;;;;;;21.00;62.10;;;;;;5034632;28;1305;-67
2021/11/08 00:10:02;;;;;;;;;;;20.90;62.10;;;;;;5033086;28;1968;-67
2021/11/08 00:12:27;;;;;;;;;;;20.90;62.10;;;;;;5032852;28;1293;-68
2021/11/08 00:14:56;;;;;;;;;;;20.90;62.10;;;;;;5035713;28;1261;-68
2021/11/08 00:17:36;;;;;;;;;;;20.90;62.20;;;;;;5045784;28;1261;-68
2021/11/08 00:20:06;;;;;;;;;;;20.90;62.20;;;;;;5036336;28;1231;-67
2021/11/08 00:22:33;;;;;;;;;;;20.90;62.20;;;;;;5043239;28;1083;-68
2021/11/08 00:25:01;;;;;;;;;;;20.90;62.20;;;;;;5034040;28;1342;-67
2021/11/08 00:27:26;;;;;;;;;;;20.90;62.30;;;;;;5034416;28;1291;-68
2021/11/08 00:29:52;;;;;;;;;;;20.90;62.30;;;;;;5034001;28;1961;-68
2021/11/08 00:32:17;;;;;;;;;;;20.90;62.30;;;;;;5033866;28;1329;-68
2021/11/08 00:34:43;;;;;;;;;;;20.90;62.40;;;;;;5034021;28;1322;-68
2021/11/08 00:37:08;;;;;;;;;;;20.90;62.40;;;;;;5033926;28;1330;-67
2021/11/08 00:39:34;;;;;;;;;;;20.80;62.40;;;;;;5033690;28;1283;-67
2021/11/08 00:42:00;;;;;;;;;;;20.80;62.40;;;;;;5031771;28;1328;-68
2021/11/08 00:44:25;;;;;;;;;;;20.90;62.50;;;;;;5032482;28;1309;-68
2021/11/08 00:46:51;;;;;;;;;;;20.80;62.40;;;;;;5033892;28;1346;-68
2021/11/08 00:49:16;;;;;;;;;;;20.80;62.40;;;;;;5033687;28;1309;-67
2021/11/08 00:51:44;;;;;;;;;;;20.80;62.40;;;;;;5032152;28;1907;-67
2021/11/08 00:54:12;;;;;;;;;;;20.80;62.50;;;;;;5033582;28;1272;-68
2021/11/08 00:56:42;;;;;;;;;;;20.80;62.50;;;;;;5033605;28;1245;-68
2021/11/08 00:59:07;;;;;;;;;;;20.80;62.50;;;;;;5046781;28;1115;-68
2021/11/08 01:01:34;;;;;;;;;;;20.80;62.50;;;;;;5044513;28;1122;-68
2021/11/08 01:03:59;;;;;;;;;;;20.80;62.60;;;;;;5035508;28;1341;-67
2021/11/08 01:06:25;;;;;;;;;;;20.80;62.60;;;;;;5033158;28;1281;-68
2021/11/08 01:08:51;;;;;;;;;;;20.80;62.60;;;;;;5032302;28;1345;-67
2021/11/08 01:11:16;;;;;;;;;;;20.80;62.70;;;;;;5033111;28;1971;-67
2021/11/08 01:13:42;;;;;;;;;;;20.80;62.70;;;;;;5033245;28;1718;-68
2021/11/08 01:16:08;;;;;;;;;;;20.70;62.60;;;;;;5043885;28;1378;-68
2021/11/08 01:18:33;;;;;;;;;;;20.70;62.70;;;;;;5034999;28;1323;-67
2021/11/08 01:20:59;;;;;;;;;;;20.80;62.70;;;;;;5042637;28;1316;-67
2021/11/08 01:23:27;;;;;;;;;;;20.70;62.70;;;;;;5035056;28;1259;-68
2021/11/08 01:25:58;;;;;;;;;;;20.70;62.70;;;;;;5033277;28;1462;-67
2021/11/08 01:28:31;;;;;;;;;;;20.70;62.70;;;;;;5031895;28;1255;-67
2021/11/08 01:30:57;;;;;;;;;;;20.70;62.80;;;;;;5032897;28;1956;-68
2021/11/08 01:33:23;;;;;;;;;;;20.70;62.80;;;;;;5032882;28;1289;-68
2021/11/08 01:38:37;;;;;;;;;;;20.70;62.90;;;;;;5040830;28;2601;-68
2021/11/08 01:41:02;;;;;;;;;;;20.70;62.90;;;;;;5052739;28;1170;-68
2021/11/08 01:43:28;;;;;;;;;;;20.70;62.80;;;;;;5052701;28;1336;-68
2021/11/08 01:45:53;;;;;;;;;;;20.70;62.90;;;;;;5052536;28;1261;-68
2021/11/08 01:48:19;;;;;;;;;;;20.70;62.90;;;;;;5052669;28;1308;-68
2021/11/08 01:50:44;;;;;;;;;;;20.70;62.90;;;;;;5052498;28;1985;-68
2021/11/08 01:53:11;;;;;;;;;;;20.70;63.00;;;;;;5052636;28;1273;-68
2021/11/08 01:55:36;;;;;;;;;;;20.70;63.00;;;;;;5049719;28;1348;-67
2021/11/08 01:58:01;;;;;;;;;;;20.70;63.00;;;;;;5033363;28;1313;-67
2021/11/08 02:00:28;;;;;;;;;;;20.70;63.00;;;;;;5032512;28;1340;-66
2021/11/08 02:02:53;;;;;;;;;;;20.70;63.00;;;;;;5031217;28;1280;-67
2021/11/08 02:05:19;;;;;;;;;;;20.70;63.10;;;;;;5031471;28;1261;-67
2021/11/08 02:07:46;;;;;;;;;;;20.70;63.00;;;;;;5031636;28;1344;-67
2021/11/08 02:10:12;;;;;;;;;;;20.60;63.00;;;;;;5031479;28;1910;-67
2021/11/08 02:12:37;;;;;;;;;;;20.60;63.00;;;;;;5032243;28;1285;-67
2021/11/08 02:15:04;;;;;;;;;;;20.60;63.00;;;;;;5035065;28;1304;-67
2021/11/08 02:17:31;;;;;;;;;;;20.70;63.10;;;;;;5041547;28;1285;-67
2021/11/08 02:19:56;;;;;;;;;;;20.70;63.10;;;;;;5033656;28;1351;-67
2021/11/08 02:22:23;;;;;;;;;;;20.60;63.10;;;;;;5041255;28;1317;-67
2021/11/08 02:24:48;;;;;;;;;;;20.70;63.10;;;;;;5048710;28;1389;-67
2021/11/08 02:27:16;;;;;;;;;;;20.60;63.10;;;;;;5052288;28;1332;-67
2021/11/08 02:29:42;;;;;;;;;;;20.60;63.10;;;;;;5051960;28;1960;-67
2021/11/08 02:32:08;;;;;;;;;;;20.60;63.10;;;;;;5052135;28;1258;-67
2021/11/08 02:34:33;;;;;;;;;;;20.60;63.10;;;;;;5052146;28;1194;-67
2021/11/08 02:36:58;;;;;;;;;;;20.60;63.10;;;;;;5052306;28;1277;-67
2021/11/08 02:39:33;;;;;;;;;;;20.60;63.20;;;;;;5052087;28;1304;-67
2021/11/08 02:41:59;;;;;;;;;;;20.60;63.10;;;;;;5051982;28;1332;-67
2021/11/08 02:44:24;;;;;;;;;;;20.60;63.20;;;;;;5051838;28;1325;-67
2021/11/08 02:46:52;;;;;;;;;;;20.60;63.20;;;;;;5047936;28;1464;-67
2021/11/08 02:49:22;;;;;;;;;;;20.60;63.20;;;;;;5048430;28;1221;-67
2021/11/08 02:51:57;;;;;;;;;;;20.60;63.20;;;;;;5048500;28;1957;-67
2021/11/08 02:54:28;;;;;;;;;;;20.60;63.20;;;;;;5033184;28;1314;-67
2021/11/08 02:56:54;;;;;;;;;;;20.60;63.30;;;;;;5049505;28;1284;-67
2021/11/08 02:59:19;;;;;;;;;;;20.60;63.30;;;;;;5049007;28;1334;-67
2021/11/08 03:01:48;;;;;;;;;;;20.60;63.30;;;;;;5049458;28;1266;-67
2021/11/08 03:04:16;;;;;;;;;;;20.60;63.30;;;;;;5047080;28;1151;-67
2021/11/08 03:06:42;;;;;;;;;;;20.60;63.30;;;;;;5054985;28;1289;-68
2021/11/08 03:09:12;;;;;;;;;;;20.60;63.30;;;;;;5053763;28;1236;-68
2021/11/08 03:11:37;;;;;;;;;;;20.60;63.30;;;;;;5052660;28;1953;-67
2021/11/08 03:14:08;;;;;;;;;;;20.60;63.30;;;;;;5051879;28;1208;-66
2021/11/08 03:16:46;;;;;;;;;;;20.60;63.40;;;;;;5052264;28;1339;-67
2021/11/08 03:19:18;;;;;;;;;;;20.60;63.40;;;;;;5052467;28;1259;-67
2021/11/08 03:21:44;;;;;;;;;;;20.60;63.40;;;;;;5051300;28;1221;-67
2021/11/08 03:24:14;;;;;;;;;;;20.60;63.40;;;;;;5052690;28;1227;-68
2021/11/08 03:29:10;;;;;;;;;;;20.50;63.40;;;;;;5052699;28;1263;-67
2021/11/08 03:31:36;;;;;;;;;;;20.60;63.40;;;;;;5054012;28;1977;-66
2021/11/08 03:34:02;;;;;;;;;;;20.50;63.40;;;;;;5052964;28;1232;-66
2021/11/08 03:36:27;;;;;;;;;;;20.50;63.40;;;;;;5052309;28;1374;-67
2021/11/08 03:38:53;;;;;;;;;;;20.50;64.20;;;;;;5053813;28;1192;-68
2021/11/08 03:41:18;;;;;;;;;;;20.50;63.40;;;;;;5050421;28;1215;-67
2021/11/08 03:43:44;;;;;;;;;;;20.50;63.40;;;;;;5052049;28;1301;-66
2021/11/08 03:46:09;;;;;;;;;;;20.50;63.50;;;;;;5052740;28;1355;-67
2021/11/08 03:48:35;;;;;;;;;;;20.50;63.50;;;;;;5053626;28;1234;-66
2021/11/08 03:51:00;;;;;;;;;;;20.50;63.50;;;;;;5050490;28;2004;-67
2021/11/08 03:53:26;;;;;;;;;;;20.50;63.50;;;;;;5052935;28;1171;-67
2021/11/08 03:55:53;;;;;;;;;;;20.50;63.50;;;;;;5049785;28;1361;-66
2021/11/08 03:58:18;;;;;;;;;;;20.50;63.50;;;;;;5054175;28;1247;-67
2021/11/08 04:00:44;;;;;;;;;;;20.50;63.50;;;;;;5051636;28;1275;-67
2021/11/08 04:03:09;;;;;;;;;;;20.50;63.50;;;;;;5052640;28;1227;-66
2021/11/08 04:05:35;;;;;;;;;;;20.50;63.50;;;;;;5049815;28;1274;-65
2021/11/08 04:08:04;;;;;;;;;;;20.50;63.60;;;;;;5051560;28;1231;-66
2021/11/08 04:10:30;;;;;;;;;;;20.50;63.50;;;;;;5053418;28;1905;-66
2021/11/08 04:13:03;;;;;;;;;;;20.50;63.60;;;;;;5051606;28;1283;-67
2021/11/08 04:15:33;;;;;;;;;;;20.50;63.60;;;;;;5049017;28;1369;-66
2021/11/08 04:17:58;;;;;;;;;;;20.50;63.60;;;;;;5051130;28;1223;-66
2021/11/08 04:20:23;;;;;;;;;;;20.50;63.60;;;;;;5050354;28;1180;-68
2021/11/08 04:22:50;;;;;;;;;;;20.50;63.60;;;;;;5052797;28;1271;-67
2021/11/08 04:25:15;;;;;;;;;;;20.50;63.60;;;;;;5051177;28;1275;-67
2021/11/08 04:27:45;;;;;;;;;;;20.50;63.60;;;;;;5052090;28;1279;-68
2021/11/08 04:30:11;;;;;;;;;;;20.50;63.60;;;;;;5049431;28;1957;-68
2021/11/08 04:32:49;;;;;;;;;;;20.50;63.60;;;;;;5052731;28;1279;-68
2021/11/08 04:35:19;;;;;;;;;;;20.50;63.60;;;;;;5051581;28;1386;-68
2021/11/08 04:37:56;;;;;;;;;;;20.50;63.60;;;;;;5051051;28;1484;-68
2021/11/08 04:50:56;;;;;;;;;;;20.40;63.70;;;;;;5050944;28;1902;-67
2021/11/08 04:53:29;;;;;;;;;;;20.40;63.70;;;;;;5033802;28;1291;-67
2021/11/08 04:56:29;;;;;;;;;;;20.40;63.80;;;;;;5033672;28;1328;-67
2021/11/08 05:21:26;;;;;;;;;;;20.40;63.80;;;;;;5047664;28;1041;-67
2021/11/08 05:31:44;;;;;;;;;;;20.40;63.80;;;;;;5050465;28;1918;-67
2021/11/08 05:34:10;;;;;;;;;;;20.40;63.90;;;;;;5048544;28;1212;-68
2021/11/08 05:36:35;;;;;;;;;;;20.40;63.90;;;;;;5047610;28;1399;-68
2021/11/08 05:39:01;;;;;;;;;;;20.40;63.80;;;;;;5047936;28;1244;-67
2021/11/08 05:41:27;;;;;;;;;;;20.40;63.80;;;;;;5048536;28;1215;-67
2021/11/08 05:43:53;;;;;;;;;;;20.40;63.80;;;;;;5050525;28;1263;-68
2021/11/08 05:46:20;;;;;;;;;;;20.40;63.70;;;;;;5048749;28;1271;-68
2021/11/08 05:48:48;;;;;;;;;;;20.50;63.70;;;;;;5051105;28;1251;-68
2021/11/08 05:51:14;;;;;;;;;;;20.50;63.60;;;;;;5032525;28;1898;-67
2021/11/08 05:53:42;;;;;;;;;;;20.50;63.40;;;;;;5032764;28;1063;-67
2021/11/08 06:50:15;;;;;;;;;;;20.90;61.80;;;;;;5047612;28;1973;-71
2021/11/08 06:52:40;;;;;;;;;;;20.90;61.80;;;;;;5035815;28;1387;-70
2021/11/08 06:55:06;;;;;;;;;;;20.90;61.80;;;;;;5035731;28;1335;-70
2021/11/08 06:57:36;;;;;;;;;;;20.90;61.80;;;;;;5036172;28;1389;-72
2021/11/08 07:00:02;;;;;;;;;;;21.00;61.80;;;;;;5034527;28;1341;-70
2021/11/08 07:02:28;;;;;;;;;;;21.00;61.70;;;;;;5034105;28;1375;-69
2021/11/08 07:04:53;;;;;;;;;;;21.00;61.70;;;;;;5035541;28;1383;-73
2021/11/08 07:07:19;;;;;;;;;;;21.00;61.30;;;;;;5033881;28;1374;-73
2021/11/08 07:09:44;;;;;;;;;;;21.00;59.10;;;;;;5035731;28;1983;-71
2021/11/08 07:12:10;;;;;;;;;;;21.00;59.20;;;;;;5035463;28;1330;-70
2021/11/08 07:14:36;;;;;;;;;;;21.00;59.10;;;;;;5039241;28;1967;-68
2021/11/08 07:17:01;;;;;;;;;;;21.00;59.20;;;;;;5055133;28;1309;-68
2021/11/08 07:19:27;;;;;;;;;;;21.00;59.30;;;;;;5050737;28;1165;-67
2021/11/08 07:21:52;;;;;;;;;;;21.00;59.20;;;;;;5047642;28;1369;-70
2021/11/08 07:24:17;;;;;;;;;;;21.00;59.30;;;;;;5035589;28;1303;-69
2021/11/08 07:26:44;;;;;;;;;;;21.00;59.40;;;;;;5051378;28;1881;-68
2021/11/08 07:29:11;;;;;;;;;;;21.00;59.50;;;;;;5048574;28;1174;-67
2021/11/08 07:31:37;;;;;;;;;;;21.00;59.70;;;;;;5047423;28;1902;-67
2021/11/08 07:34:02;;;;;;;;;;;21.00;59.80;;;;;;5035006;28;1333;-66
2021/11/08 07:36:28;;;;;;;;;;;21.00;59.90;;;;;;5035415;28;1344;-67
2021/11/08 07:38:53;;;;;;;;;;;21.00;60.00;;;;;;5034260;28;1294;-67
2021/11/08 07:41:18;;;;;;;;;;;21.10;60.10;;;;;;5034804;28;1493;-67
2021/11/08 07:43:47;;;;;;;;;;;21.10;60.00;;;;;;5035254;28;1099;-67
2021/11/08 07:46:13;;;;;;;;;;;21.20;59.90;;;;;;5035115;28;1317;-67
2021/11/08 07:48:40;;;;;;;;;;;21.30;59.90;;;;;;5034836;28;1291;-67
2021/11/08 07:51:06;;;;;;;;;;;21.40;59.70;;;;;;5034357;28;1954;-67
2021/11/08 07:53:32;;;;;;;;;;;21.50;59.60;;;;;;5034999;28;1296;-69
2021/11/08 07:55:58;;;;;;;;;;;21.70;59.50;;;;;;5035350;28;1435;-69
2021/11/08 07:58:24;;;;;;;;;;;21.80;59.20;;;;;;5034904;28;1266;-69
2021/11/08 08:00:49;;;;;;;;;;;21.90;59.00;;;;;;5034509;28;1487;-69
2021/11/08 08:03:15;;;;;;;;;;;22.00;58.80;;;;;;5034879;28;1317;-69
2021/11/08 08:05:40;;;;;;;;;;;22.00;58.60;;;;;;5034814;28;1311;-69
2021/11/08 08:08:06;;;;;;;;;;;22.10;58.40;;;;;;5034763;28;1256;-69
2021/11/08 08:10:31;;;;;;;;;;;22.20;58.30;;;;;;5033425;28;1914;-69
2021/11/08 08:12:57;;;;;;;;;;;22.30;58.10;;;;;;5034471;28;1246;-69
2021/11/08 08:15:22;;;;;;;;;;;22.30;57.90;;;;;;5039947;28;1411;-69
2021/11/08 08:17:48;;;;;;;;;;;22.40;57.90;;;;;;5040916;28;1302;-69
2021/11/08 08:20:16;;;;;;;;;;;22.40;57.70;;;;;;5037945;28;1535;-68
2021/11/08 08:22:42;;;;;;;;;;;22.50;57.70;;;;;;5041506;28;1265;-69
2021/11/08 08:25:08;;;;;;;;;;;22.50;57.60;;;;;;5034279;28;1370;-69
2021/11/08 08:27:33;;;;;;;;;;;22.50;57.60;;;;;;5034384;28;1502;-70
2021/11/08 08:29:59;;;;;;;;;;;22.50;57.50;;;;;;5034168;28;1965;-70
2021/11/08 08:32:25;;;;;;;;;;;22.50;58.10;;;;;;5033808;28;1324;-70
2021/11/08 08:34:50;;;;;;;;;;;22.50;57.60;;;;;;5034124;28;1491;-70
2021/11/08 08:37:16;;;;;;;;;;;22.50;57.60;;;;;;5034354;28;1280;-69
2021/11/08 08:39:41;;;;;;;;;;;22.50;57.60;;;;;;5032861;28;1468;-69
2021/11/08 08:42:07;;;;;;;;;;;22.50;57.70;;;;;;5033732;28;1253;-69
2021/11/08 08:44:32;;;;;;;;;;;22.50;57.70;;;;;;5033859;28;1332;-70
2021/11/08 08:46:58;;;;;;;;;;;22.50;57.80;;;;;;5033640;28;1716;-69
2021/11/08 08:49:24;;;;;;;;;;;22.50;57.70;;;;;;5033818;28;1417;-69
2021/11/08 08:51:51;;;;;;;;;;;22.50;57.80;;;;;;5033541;28;1898;-69
2021/11/08 08:54:16;;;;;;;;;;;22.50;57.80;;;;;;5032694;28;1333;-69
2021/11/08 08:56:42;;;;;;;;;;;22.50;57.90;;;;;;5033591;28;1320;-68
2021/11/08 08:59:07;;;;;;;;;;;22.50;57.90;;;;;;5033702;28;1109;-68
2021/11/08 09:01:33;;;;;;;;;;;22.50;57.90;;;;;;5040961;28;1900;-69
2021/11/08 09:03:58;;;;;;;;;;;22.40;57.90;;;;;;5047499;28;1628;-68
2021/11/08 09:06:24;;;;;;;;;;;22.40;58.00;;;;;;5048235;28;1281;-68
2021/11/08 09:08:50;;;;;;;;;;;22.40;58.00;;;;;;5035448;28;1393;-68
2021/11/08 09:11:15;;;;;;;;;;;22.40;58.10;;;;;;5039209;28;1906;-68
2021/11/08 09:13:41;;;;;;;;;;;22.30;58.10;;;;;;5048113;28;1228;-68
2021/11/08 09:16:11;;;;;;;;;;;22.30;58.20;;;;;;5044793;28;1267;-68
2021/11/08 09:18:40;;;;;;;;;;;22.30;58.20;;;;;;5034847;28;1305;-69
2021/11/08 09:21:07;;;;;;;;;;;22.30;58.30;;;;;;5042843;28;1305;-68
2021/11/08 09:23:32;;;;;;;;;;;22.30;58.40;;;;;;5034185;28;1380;-68
2021/11/08 09:25:58;;;;;;;;;;;22.20;58.40;;;;;;5033508;28;1355;-68
2021/11/08 09:28:23;;;;;;;;;;;22.20;58.50;;;;;;5032967;28;1368;-68
2021/11/08 09:30:49;;;;;;;;;;;22.20;58.50;;;;;;5032725;28;1902;-68
2021/11/08 09:33:14;;;;;;;;;;;22.20;58.60;;;;;;5031673;28;1316;-68
2021/11/08 09:35:46;;;;;;;;;;;22.10;58.60;;;;;;5043943;28;1364;-68
2021/11/08 09:38:11;;;;;;;;;;;22.20;58.70;;;;;;5051934;28;1397;-68
2021/11/08 09:40:37;;;;;;;;;;;22.10;58.70;;;;;;5040441;28;1308;-68
2021/11/08 09:43:02;;;;;;;;;;;22.10;58.80;;;;;;5032605;28;1250;-68
2021/11/08 09:45:28;;;;;;;;;;;22.10;58.80;;;;;;5031722;28;1357;-68
2021/11/08 09:47:53;;;;;;;;;;;22.10;58.90;;;;;;5032909;28;1385;-68
2021/11/08 09:50:22;;;;;;;;;;;22.10;58.90;;;;;;5032928;28;1965;-68
2021/11/08 09:52:47;;;;;;;;;;;22.00;58.90;;;;;;5032603;28;1314;-68
2021/11/08 09:55:16;;;;;;;;;;;22.00;59.00;;;;;;5031614;28;1320;-68
2021/11/08 09:57:41;;;;;;;;;;;22.00;59.00;;;;;;5042221;28;1340;-68
2021/11/08 10:00:19;;;;;;;;;;;22.00;59.10;;;;;;5032430;28;1052;-68
2021/11/08 10:02:48;;;;;;;;;;;22.00;59.10;;;;;;5032789;28;1111;-67
2021/11/08 10:05:13;;;;;;;;;;;22.00;59.20;;;;;;5032628;28;1402;-68
2021/11/08 10:07:39;;;;;;;;;;;22.00;59.20;;;;;;5032807;28;1327;-67
2021/11/08 10:10:04;;;;;;;;;;;22.00;59.30;;;;;;5031149;28;1957;-68
2021/11/08 10:12:30;;;;;;;;;;;21.90;59.30;;;;;;5032772;28;1320;-67
2021/11/08 10:14:55;;;;;;;;;;;21.90;59.30;;;;;;5038472;28;1270;-67
2021/11/08 10:17:22;;;;;;;;;;;21.90;59.30;;;;;;5048105;28;1290;-68
2021/11/08 10:19:47;;;;;;;;;;;21.90;59.30;;;;;;5036643;28;1253;-68
2021/11/08 10:22:13;;;;;;;;;;;22.00;59.40;;;;;;5047847;28;1273;-68
2021/11/08 10:24:38;;;;;;;;;;;21.90;59.40;;;;;;5036572;28;1348;-67
2021/11/08 10:27:06;;;;;;;;;;;21.90;59.40;;;;;;5045988;28;1307;-68
2021/11/08 10:29:31;;;;;;;;;;;21.90;59.40;;;;;;5041833;28;1311;-67
2021/11/08 10:31:57;;;;;;;;;;;21.90;59.40;;;;;;5054806;28;1967;-68
2021/11/08 10:34:26;;;;;;;;;;;21.90;59.40;;;;;;5055055;28;1373;-68
2021/11/08 10:36:56;;;;;;;;;;;21.90;59.40;;;;;;5055093;28;1372;-68
2021/11/08 10:39:21;;;;;;;;;;;22.00;59.40;;;;;;5054769;28;1243;-68
2021/11/08 10:41:47;;;;;;;;;;;22.00;59.40;;;;;;5055704;28;1297;-67
2021/11/08 10:44:15;;;;;;;;;;;22.00;59.30;;;;;;5056230;28;1249;-67
2021/11/08 10:46:41;;;;;;;;;;;22.00;59.30;;;;;;5055147;28;1346;-68
2021/11/08 10:49:08;;;;;;;;;;;22.00;59.30;;;;;;5055918;28;1293;-68
2021/11/08 10:51:35;;;;;;;;;;;22.10;59.30;;;;;;5054082;28;1890;-68
2021/11/08 10:54:04;;;;;;;;;;;22.10;59.30;;;;;;5049459;28;2018;-68
2021/11/08 10:56:34;;;;;;;;;;;22.10;59.10;;;;;;5055467;28;1547;-67
2021/11/08 10:59:01;;;;;;;;;;;22.10;59.10;;;;;;5043260;28;1365;-67
2021/11/08 11:01:30;;;;;;;;;;;22.10;59.00;;;;;;5042153;28;1165;-67
2021/11/08 11:03:56;;;;;;;;;;;22.10;59.00;;;;;;5048042;28;1859;-67
2021/11/08 11:06:32;;;;;;;;;;;22.20;59.00;;;;;;5052478;28;1295;-67
2021/11/08 11:09:00;;;;;;;;;;;22.20;59.00;;;;;;5045772;28;1322;-67
2021/11/08 11:11:25;;;;;;;;;;;22.20;58.90;;;;;;5049457;28;1906;-67
2021/11/08 11:13:52;;;;;;;;;;;22.20;58.90;;;;;;5045255;28;1091;-67
2021/11/08 11:16:29;;;;;;;;;;;22.20;58.80;;;;;;5054027;28;1466;-67
2021/11/08 11:18:57;;;;;;;;;;;22.30;58.90;;;;;;5045798;28;1159;-67
2021/11/08 11:21:23;;;;;;;;;;;22.20;58.80;;;;;;5045426;28;1278;-68
2021/11/08 11:23:49;;;;;;;;;;;22.30;58.80;;;;;;5035498;28;1269;-67
2021/11/08 11:26:16;;;;;;;;;;;22.30;58.80;;;;;;5034581;28;1320;-68
2021/11/08 11:28:45;;;;;;;;;;;22.30;58.80;;;;;;5035782;28;1332;-68
2021/11/08 11:31:20;;;;;;;;;;;22.30;58.80;;;;;;5033884;28;1965;-67
2021/11/08 11:33:45;;;;;;;;;;;22.30;58.80;;;;;;5035356;28;1340;-68
2021/11/08 11:36:12;;;;;;;;;;;22.30;58.80;;;;;;5035110;28;1267;-67
2021/11/08 11:38:40;;;;;;;;;;;22.30;58.80;;;;;;5035304;28;1309;-67
2021/11/08 11:41:06;;;;;;;;;;;22.30;58.80;;;;;;5034550;28;1402;-67
2021/11/08 11:43:42;;;;;;;;;;;22.30;58.70;;;;;;5035264;28;1277;-67
2021/11/08 11:46:11;;;;;;;;;;;22.30;58.80;;;;;;5034574;28;1365;-67
2021/11/08 11:48:37;;;;;;;;;;;22.30;58.80;;;;;;5035092;28;1353;-66
2021/11/08 11:51:03;;;;;;;;;;;22.30;58.70;;;;;;5049499;28;1894;-67
2021/11/08 11:53:29;;;;;;;;;;;22.30;58.80;;;;;;5051029;28;1113;-68
2021/11/08 11:55:55;;;;;;;;;;;22.30;58.80;;;;;;5051298;28;1361;-68
2021/11/08 11:58:20;;;;;;;;;;;22.30;58.80;;;;;;5052603;28;1184;-67
2021/11/08 12:00:46;;;;;;;;;;;22.30;58.80;;;;;;5050145;28;1420;-67
2021/11/08 12:03:12;;;;;;;;;;;22.30;58.80;;;;;;5052585;28;1271;-68
2021/11/08 12:05:39;;;;;;;;;;;22.30;58.80;;;;;;5049512;28;1451;-67
2021/11/08 12:08:06;;;;;;;;;;;22.30;58.80;;;;;;5053947;28;1227;-67
2021/11/08 12:10:32;;;;;;;;;;;22.30;59.00;;;;;;5047030;28;1882;-67
2021/11/08 12:12:57;;;;;;;;;;;22.30;58.80;;;;;;5034045;28;1368;-67
2021/11/08 12:15:27;;;;;;;;;;;22.30;58.80;;;;;;5039974;28;1283;-67
2021/11/08 12:17:52;;;;;;;;;;;22.30;58.80;;;;;;5041801;28;1338;-67
2021/11/08 12:20:18;;;;;;;;;;;22.30;58.80;;;;;;5037318;28;1332;-67
2021/11/08 12:22:44;;;;;;;;;;;22.30;58.80;;;;;;5042055;28;1260;-67
2021/11/08 12:25:12;;;;;;;;;;;22.30;58.80;;;;;;5034243;28;1404;-67
2021/11/08 12:27:48;;;;;;;;;;;22.30;58.80;;;;;;5032924;28;1376;-67
2021/11/08 12:30:15;;;;;;;;;;;22.40;58.90;;;;;;5039893;28;1910;-67
2021/11/08 12:32:45;;;;;;;;;;;22.30;58.80;;;;;;5054102;28;1254;-67
2021/11/08 12:35:14;;;;;;;;;;;22.30;58.80;;;;;;5053961;28;1267;-67
2021/11/08 12:37:40;;;;;;;;;;;22.30;58.80;;;;;;5051914;28;1390;-67
2021/11/08 12:40:05;;;;;;;;;;;22.30;58.80;;;;;;5053911;28;1306;-67
2021/11/08 12:42:37;;;;;;;;;;;22.30;58.80;;;;;;5053548;28;1313;-67
2021/11/08 12:45:07;;;;;;;;;;;22.30;58.80;;;;;;5054023;28;1368;-67
2021/11/08 12:47:32;;;;;;;;;;;22.30;58.90;;;;;;5052565;28;1380;-67
2021/11/08 12:49:58;;;;;;;;;;;22.30;58.90;;;;;;5053939;28;1902;-67
2021/11/08 12:52:25;;;;;;;;;;;22.30;58.90;;;;;;5053216;28;1239;-67
2021/11/08 12:55:03;;;;;;;;;;;22.30;58.90;;;;;;5053583;28;1326;-67
2021/11/08 12:57:28;;;;;;;;;;;22.30;59.00;;;;;;5048710;28;1904;-66
2021/11/08 13:00:01;;;;;;;;;;;22.30;58.90;;;;;;5052352;28;1296;-66
2021/11/08 13:02:28;;;;;;;;;;;22.30;59.00;;;;;;5049061;28;1316;-67
2021/11/08 13:04:55;;;;;;;;;;;22.30;59.00;;;;;;5051303;28;1400;-67
2021/11/08 13:07:21;;;;;;;;;;;22.30;59.00;;;;;;5032926;28;1235;-67
2021/11/08 13:09:48;;;;;;;;;;;22.30;59.10;;;;;;5045772;28;1375;-67
2021/11/08 13:12:14;;;;;;;;;;;22.30;59.10;;;;;;5033007;28;1968;-67
2021/11/08 13:14:40;;;;;;;;;;;22.30;59.10;;;;;;5049046;28;1335;-67
2021/11/08 13:17:07;;;;;;;;;;;22.20;59.10;;;;;;5039968;28;1241;-66
2021/11/08 13:19:34;;;;;;;;;;;22.20;59.10;;;;;;5052006;28;1318;-67
2021/11/08 13:22:10;;;;;;;;;;;22.20;59.20;;;;;;5046733;28;1747;-67
2021/11/08 13:24:35;;;;;;;;;;;22.20;59.20;;;;;;5046546;28;1166;-66
2021/11/08 13:27:00;;;;;;;;;;;22.20;59.20;;;;;;5045804;28;1242;-67
2021/11/08 13:29:26;;;;;;;;;;;22.20;59.30;;;;;;5044631;28;1222;-67
2021/11/08 13:31:51;;;;;;;;;;;22.20;59.30;;;;;;5043868;28;1966;-67
2021/11/08 13:34:17;;;;;;;;;;;22.10;59.30;;;;;;5033963;28;1278;-67
2021/11/08 13:36:43;;;;;;;;;;;22.10;59.40;;;;;;5045152;28;1556;-67
2021/11/08 13:39:08;;;;;;;;;;;22.10;59.40;;;;;;5038365;28;1350;-66
2021/11/08 13:41:34;;;;;;;;;;;22.10;59.40;;;;;;5052717;28;1308;-67
2021/11/08 13:44:00;;;;;;;;;;;22.10;59.40;;;;;;5051669;28;1294;-67
2021/11/08 13:46:27;;;;;;;;;;;22.10;59.50;;;;;;5051593;28;1299;-67
2021/11/08 13:48:53;;;;;;;;;;;22.00;59.50;;;;;;5052345;28;1315;-67
2021/11/08 13:51:20;;;;;;;;;;;22.10;59.50;;;;;;5052743;28;1949;-67
2021/11/08 13:53:50;;;;;;;;;;;22.10;59.60;;;;;;5051455;28;1372;-67
2021/11/08 13:56:15;;;;;;;;;;;22.10;59.60;;;;;;5052997;28;1317;-67
2021/11/08 13:58:49;;;;;;;;;;;22.00;59.60;;;;;;5051360;28;1329;-67
2021/11/08 14:01:14;;;;;;;;;;;22.10;59.70;;;;;;5051116;28;1391;-67
2021/11/08 14:03:44;;;;;;;;;;;22.00;59.60;;;;;;5052434;28;1333;-67
2021/11/08 14:06:09;;;;;;;;;;;22.00;59.70;;;;;;5041423;28;1325;-67
2021/11/08 14:08:36;;;;;;;;;;;22.00;59.70;;;;;;5032671;28;1282;-67
2021/11/08 14:11:01;;;;;;;;;;;22.00;59.70;;;;;;5030968;28;1898;-67
2021/11/08 14:13:30;;;;;;;;;;;22.00;59.70;;;;;;5032562;28;1321;-67
2021/11/08 14:15:56;;;;;;;;;;;22.00;59.80;;;;;;5044537;28;2232;-67
2021/11/08 14:18:22;;;;;;;;;;;22.00;59.80;;;;;;5047656;28;1269;-67
2021/11/08 14:20:47;;;;;;;;;;;22.00;59.80;;;;;;5049376;28;1150;-66
2021/11/08 14:23:13;;;;;;;;;;;22.00;59.80;;;;;;5049249;28;1022;-67
2021/11/08 14:25:39;;;;;;;;;;;21.90;59.80;;;;;;5038981;28;1304;-67
2021/11/08 14:28:04;;;;;;;;;;;21.90;59.80;;;;;;5032545;28;1374;-67
2021/11/08 14:30:31;;;;;;;;;;;21.90;59.80;;;;;;5036215;28;1956;-67
2021/11/08 14:32:57;;;;;;;;;;;21.90;59.80;;;;;;5048680;28;1626;-68
2021/11/08 14:35:27;;;;;;;;;;;21.90;59.90;;;;;;5050395;28;1929;-67
2021/11/08 14:38:01;;;;;;;;;;;21.90;59.90;;;;;;5051678;28;1317;-67
2021/11/08 14:40:30;;;;;;;;;;;21.90;59.90;;;;;;5040965;28;1094;-68
2021/11/08 14:42:55;;;;;;;;;;;21.90;60.00;;;;;;5030883;28;1311;-67
2021/11/08 14:45:26;;;;;;;;;;;21.90;60.00;;;;;;5030857;28;1360;-67
2021/11/08 14:47:55;;;;;;;;;;;21.90;60.00;;;;;;5031201;28;1189;-67
2021/11/08 14:50:26;;;;;;;;;;;21.90;60.00;;;;;;5032204;28;1910;-67
2021/11/08 14:52:52;;;;;;;;;;;21.80;60.00;;;;;;5032035;28;1321;-67
2021/11/08 14:55:19;;;;;;;;;;;21.80;60.00;;;;;;5030836;28;1291;-67
2021/11/08 14:57:45;;;;;;;;;;;21.80;60.10;;;;;;5041775;28;1465;-67
2021/11/08 15:00:15;;;;;;;;;;;21.90;60.10;;;;;;5033060;28;1279;-67
2021/11/08 15:02:40;;;;;;;;;;;21.80;60.10;;;;;;5039958;28;1310;-67
2021/11/08 15:05:10;;;;;;;;;;;21.80;60.10;;;;;;5054039;28;1327;-68
2021/11/08 15:07:37;;;;;;;;;;;21.80;60.20;;;;;;5053821;28;2229;-68
2021/11/08 15:10:06;;;;;;;;;;;21.80;60.30;;;;;;5054641;28;1902;-68
2021/11/08 15:12:33;;;;;;;;;;;21.80;60.20;;;;;;5043945;28;1133;-68
2021/11/08 15:15:00;;;;;;;;;;;21.80;60.30;;;;;;5037821;28;1313;-68
2021/11/08 15:17:33;;;;;;;;;;;21.80;60.40;;;;;;5045387;28;1356;-68
2021/11/08 15:20:05;;;;;;;;;;;21.80;60.30;;;;;;5036170;28;1329;-68
2021/11/08 15:22:31;;;;;;;;;;;21.70;60.30;;;;;;5045080;28;1281;-68
2021/11/08 15:24:56;;;;;;;;;;;21.80;60.40;;;;;;5036993;28;1921;-68
2021/11/08 15:27:28;;;;;;;;;;;21.80;60.40;;;;;;5055169;28;1243;-68
2021/11/08 15:30:02;;;;;;;;;;;21.70;60.40;;;;;;5043493;28;1194;-68
2021/11/08 15:32:28;;;;;;;;;;;21.70;60.40;;;;;;5033953;28;1267;-67
2021/11/08 15:34:53;;;;;;;;;;;21.70;60.50;;;;;;5035259;28;1397;-67
2021/11/08 15:37:22;;;;;;;;;;;21.70;60.50;;;;;;5047191;28;1139;-68
2021/11/08 15:39:47;;;;;;;;;;;21.70;60.50;;;;;;5048130;28;1336;-67
2021/11/08 15:42:13;;;;;;;;;;;21.70;60.50;;;;;;5037986;28;1421;-69
2021/11/08 15:44:38;;;;;;;;;;;21.70;60.60;;;;;;5049517;28;1303;-69
2021/11/08 15:47:05;;;;;;;;;;;21.70;60.60;;;;;;5053187;28;1315;-68
2021/11/08 15:49:30;;;;;;;;;;;21.70;60.70;;;;;;5053264;28;1403;-68
2021/11/08 15:51:56;;;;;;;;;;;21.70;60.70;;;;;;5052864;28;1922;-69
2021/11/08 15:54:22;;;;;;;;;;;21.70;60.70;;;;;;5050480;28;1498;-68
2021/11/08 15:56:49;;;;;;;;;;;21.70;60.70;;;;;;5050152;28;1370;-68
2021/11/08 15:59:14;;;;;;;;;;;21.70;60.80;;;;;;5053503;28;1344;-66
2021/11/08 16:01:41;;;;;;;;;;;21.60;60.70;;;;;;5052050;28;1833;-67
2021/11/08 16:04:06;;;;;;;;;;;21.60;60.70;;;;;;5049349;28;1784;-67
2021/11/08 16:06:32;;;;;;;;;;;21.60;60.80;;;;;;5050190;28;1381;-68
2021/11/08 16:08:57;;;;;;;;;;;21.60;60.80;;;;;;5030498;28;1217;-68